This is the latest recevied weather packets stored in our database for station/object KB9HUO. If no packets are shown the sender has not sent any weather packets the latest 1 day(s).
| Time | Temp. | Humidity | Pressure | Rain* | Wind** | Luminosity | Snow |
|---|---|---|---|---|---|---|---|
| 1778045342 | 8.89° C | 98% | 1009.9 hPa | 6.1 mm | 0.45 m/s, 291° | 0 W/m² | - |
| 1778045040 | 9.44° C | 98% | 1009.8 hPa | 6.1 mm | 0 m/s | 0 W/m² | - |
| 1778044738 | 9.44° C | 98% | 1009.9 hPa | 7.11 mm | 0 m/s | 0 W/m² | - |
| 1778044434 | 9.44° C | 98% | 1009.6 hPa | 6.1 mm | 0.89 m/s, 319° | 0 W/m² | - |
| 1778044131 | 9.44° C | 98% | 1009.7 hPa | 3.56 mm | 0.45 m/s, 341° | 0 W/m² | - |
| 1778043829 | 9.44° C | 98% | 1009.6 hPa | 1.78 mm | 0.45 m/s, 301° | 0 W/m² | - |
| 1778043525 | 9.44° C | 98% | 1009.3 hPa | 0 mm | 0.89 m/s, 307° | 0 W/m² | - |
| 1778043222 | 9.44° C | 98% | 1009.1 hPa | 0 mm | 0.89 m/s, 356° | 0 W/m² | - |
| 1778042919 | 9.44° C | 98% | 1009.1 hPa | 1.27 mm | 0.89 m/s, 307° | 0 W/m² | - |
| 1778042617 | 9.44° C | 98% | 1009.3 hPa | 3.05 mm | 0.45 m/s, 2° | 0 W/m² | - |
| 1778042314 | 9.44° C | 98% | 1009.2 hPa | 3.05 mm | 0.89 m/s, 336° | 0 W/m² | - |
| 1778042011 | 9.44° C | 98% | 1009.3 hPa | 6.1 mm | 0.45 m/s, 281° | 0 W/m² | - |
| 1778041709 | 9.44° C | 98% | 1009.5 hPa | 8.89 mm | 0 m/s | 0 W/m² | - |
| 1778041408 | 9.44° C | 98% | 1008.9 hPa | 8.89 mm | 0.45 m/s, 297° | 0 W/m² | - |
| 1778041106 | 9.44° C | 98% | 1009.2 hPa | 6.6 mm | 0.45 m/s, 284° | 0 W/m² | - |
| 1778040803 | 9.44° C | 98% | 1009.1 hPa | 6.6 mm | 0.45 m/s, 304° | 0 W/m² | - |
| 1778040500 | 9.44° C | 98% | 1008.7 hPa | 7.11 mm | 0.45 m/s, 316° | 0 W/m² | - |
| 1778040197 | 9.44° C | 98% | 1008.7 hPa | 6.1 mm | 0.89 m/s, 318° | 0 W/m² | - |
| 1778039893 | 9.44° C | 98% | 1008.7 hPa | 1.78 mm | 1.34 m/s, 38° | 0 W/m² | - |
| 1778039591 | 9.44° C | 98% | 1008.9 hPa | 1.27 mm | 1.79 m/s, 42° | 0 W/m² | - |
| 1778039288 | 9.44° C | 98% | 1008.9 hPa | 3.05 mm | 0.89 m/s, 302° | 0 W/m² | - |
| 1778038985 | 9.44° C | 98% | 1009 hPa | 4.83 mm | 0.45 m/s, 309° | 0 W/m² | - |
| 1778038682 | 9.44° C | 98% | 1008.9 hPa | 9.65 mm | 0.45 m/s, 288° | 0 W/m² | - |
| 1778038379 | 9.44° C | 98% | 1009 hPa | 14.99 mm | 0.89 m/s, 350° | 0 W/m² | - |
| 1778038076 | 10° C | 98% | 1010.1 hPa | 10.67 mm | 0.45 m/s, 1° | 0 W/m² | - |
* Rain latest hour (hover to see other rain measurements)
** Current wind speed in m/s (hover to see current wind gust speed)